sensor_id;sensor_type;location;lat;lon;timestamp;P1;durP1;ratioP1;P2;durP2;ratioP2
68089;SDS011;54880;50.986;6.990;2023-04-02T00:08:54;12.98;;;5.95;;
68089;SDS011;54880;50.986;6.990;2023-04-02T00:11:29;12.90;;;5.95;;
68089;SDS011;54880;50.986;6.990;2023-04-02T00:13:57;12.50;;;6.40;;
68089;SDS011;54880;50.986;6.990;2023-04-02T00:16:24;12.00;;;6.13;;
68089;SDS011;54880;50.986;6.990;2023-04-02T00:18:52;12.13;;;6.20;;
68089;SDS011;54880;50.986;6.990;2023-04-02T00:21:20;14.15;;;6.47;;
68089;SDS011;54880;50.986;6.990;2023-04-02T00:23:46;12.65;;;6.47;;
68089;SDS011;54880;50.986;6.990;2023-04-02T00:28:56;14.82;;;6.28;;
68089;SDS011;54880;50.986;6.990;2023-04-02T00:31:21;12.45;;;6.60;;
68089;SDS011;54880;50.986;6.990;2023-04-02T00:33:47;13.13;;;6.33;;
68089;SDS011;54880;50.986;6.990;2023-04-02T00:36:12;12.80;;;6.33;;
68089;SDS011;54880;50.986;6.990;2023-04-02T00:38:38;13.80;;;6.43;;
68089;SDS011;54880;50.986;6.990;2023-04-02T00:41:09;14.90;;;6.95;;
68089;SDS011;54880;50.986;6.990;2023-04-02T00:43:37;13.18;;;5.75;;
68089;SDS011;54880;50.986;6.990;2023-04-02T00:46:06;8.18;;;3.03;;
68089;SDS011;54880;50.986;6.990;2023-04-02T00:51:02;4.77;;;1.67;;
68089;SDS011;54880;50.986;6.990;2023-04-02T00:53:32;4.43;;;1.10;;
68089;SDS011;54880;50.986;6.990;2023-04-02T00:55:57;4.47;;;1.30;;
68089;SDS011;54880;50.986;6.990;2023-04-02T01:00:49;4.97;;;1.53;;
68089;SDS011;54880;50.986;6.990;2023-04-02T01:06:12;4.90;;;1.80;;
68089;SDS011;54880;50.986;6.990;2023-04-02T01:11:18;4.70;;;1.60;;
68089;SDS011;54880;50.986;6.990;2023-04-02T01:19:17;4.83;;;1.70;;
68089;SDS011;54880;50.986;6.990;2023-04-02T01:24:17;5.22;;;2.08;;
68089;SDS011;54880;50.986;6.990;2023-04-02T01:26:53;5.05;;;1.88;;
68089;SDS011;54880;50.986;6.990;2023-04-02T01:31:50;5.13;;;1.80;;
68089;SDS011;54880;50.986;6.990;2023-04-02T01:34:18;5.05;;;1.90;;
68089;SDS011;54880;50.986;6.990;2023-04-02T01:36:49;6.68;;;1.90;;
68089;SDS011;54880;50.986;6.990;2023-04-02T01:41:46;5.55;;;1.77;;
68089;SDS011;54880;50.986;6.990;2023-04-02T01:44:14;4.80;;;1.70;;
68089;SDS011;54880;50.986;6.990;2023-04-02T01:46:42;5.22;;;1.70;;
68089;SDS011;54880;50.986;6.990;2023-04-02T01:49:17;4.57;;;1.75;;
68089;SDS011;54880;50.986;6.990;2023-04-02T01:51:43;4.82;;;1.55;;
68089;SDS011;54880;50.986;6.990;2023-04-02T01:54:09;5.00;;;1.70;;
68089;SDS011;54880;50.986;6.990;2023-04-02T01:56:35;4.50;;;1.50;;
68089;SDS011;54880;50.986;6.990;2023-04-02T01:59:01;5.05;;;1.40;;
68089;SDS011;54880;50.986;6.990;2023-04-02T02:02:14;4.35;;;1.48;;
68089;SDS011;54880;50.986;6.990;2023-04-02T02:04:20;4.67;;;1.60;;
68089;SDS011;54880;50.986;6.990;2023-04-02T02:06:46;4.90;;;1.50;;
68089;SDS011;54880;50.986;6.990;2023-04-02T02:09:13;4.90;;;1.77;;
68089;SDS011;54880;50.986;6.990;2023-04-02T02:11:40;4.85;;;1.75;;
68089;SDS011;54880;50.986;6.990;2023-04-02T02:14:08;5.03;;;1.80;;
68089;SDS011;54880;50.986;6.990;2023-04-02T02:16:36;4.50;;;1.45;;
68089;SDS011;54880;50.986;6.990;2023-04-02T02:19:06;4.90;;;1.60;;
68089;SDS011;54880;50.986;6.990;2023-04-02T02:21:37;4.43;;;1.50;;
68089;SDS011;54880;50.986;6.990;2023-04-02T02:24:02;4.50;;;1.40;;
68089;SDS011;54880;50.986;6.990;2023-04-02T02:26:28;4.53;;;1.40;;
68089;SDS011;54880;50.986;6.990;2023-04-02T02:28:58;4.85;;;1.70;;
68089;SDS011;54880;50.986;6.990;2023-04-02T02:31:26;5.05;;;1.85;;
68089;SDS011;54880;50.986;6.990;2023-04-02T02:33:57;4.63;;;1.50;;
68089;SDS011;54880;50.986;6.990;2023-04-02T02:36:27;4.97;;;1.85;;
68089;SDS011;54880;50.986;6.990;2023-04-02T02:39:19;5.10;;;1.80;;
68089;SDS011;54880;50.986;6.990;2023-04-02T02:41:49;5.30;;;1.75;;
68089;SDS011;54880;50.986;6.990;2023-04-02T02:44:26;4.70;;;1.70;;
68089;SDS011;54880;50.986;6.990;2023-04-02T02:46:54;4.90;;;1.80;;
68089;SDS011;54880;50.986;6.990;2023-04-02T02:49:23;6.10;;;1.70;;
68089;SDS011;54880;50.986;6.990;2023-04-02T02:52:11;5.55;;;2.00;;
68089;SDS011;54880;50.986;6.990;2023-04-02T02:54:48;5.80;;;2.00;;
68089;SDS011;54880;50.986;6.990;2023-04-02T02:57:20;4.90;;;1.85;;
68089;SDS011;54880;50.986;6.990;2023-04-02T02:59:47;5.27;;;1.90;;
68089;SDS011;54880;50.986;6.990;2023-04-02T03:02:13;5.10;;;1.65;;
68089;SDS011;54880;50.986;6.990;2023-04-02T03:04:39;5.10;;;1.80;;
68089;SDS011;54880;50.986;6.990;2023-04-02T03:07:11;5.15;;;2.00;;
68089;SDS011;54880;50.986;6.990;2023-04-02T03:09:40;9.60;;;2.20;;
68089;SDS011;54880;50.986;6.990;2023-04-02T03:12:31;6.00;;;1.98;;
68089;SDS011;54880;50.986;6.990;2023-04-02T03:15:14;5.40;;;1.95;;
68089;SDS011;54880;50.986;6.990;2023-04-02T03:17:49;5.88;;;2.20;;
68089;SDS011;54880;50.986;6.990;2023-04-02T03:23:02;6.07;;;2.40;;
68089;SDS011;54880;50.986;6.990;2023-04-02T03:25:42;6.32;;;2.45;;
68089;SDS011;54880;50.986;6.990;2023-04-02T03:28:17;6.97;;;2.83;;
68089;SDS011;54880;50.986;6.990;2023-04-02T03:30:49;5.90;;;2.38;;
68089;SDS011;54880;50.986;6.990;2023-04-02T03:33:23;6.72;;;2.80;;
68089;SDS011;54880;50.986;6.990;2023-04-02T03:38:35;6.68;;;3.00;;
68089;SDS011;54880;50.986;6.990;2023-04-02T03:41:06;8.05;;;2.85;;
68089;SDS011;54880;50.986;6.990;2023-04-02T03:43:42;7.35;;;3.10;;
68089;SDS011;54880;50.986;6.990;2023-04-02T03:46:53;7.38;;;3.50;;
68089;SDS011;54880;50.986;6.990;2023-04-02T03:49:01;7.80;;;3.20;;
68089;SDS011;54880;50.986;6.990;2023-04-02T03:51:43;7.65;;;3.17;;
68089;SDS011;54880;50.986;6.990;2023-04-02T03:54:11;7.78;;;3.33;;
68089;SDS011;54880;50.986;6.990;2023-04-02T03:56:38;7.95;;;3.72;;
68089;SDS011;54880;50.986;6.990;2023-04-02T03:59:13;7.85;;;3.90;;
68089;SDS011;54880;50.986;6.990;2023-04-02T04:04:31;7.13;;;3.40;;
68089;SDS011;54880;50.986;6.990;2023-04-02T04:06:57;7.18;;;3.47;;
68089;SDS011;54880;50.986;6.990;2023-04-02T04:09:28;8.02;;;3.20;;
68089;SDS011;54880;50.986;6.990;2023-04-02T04:12:06;7.25;;;3.60;;
68089;SDS011;54880;50.986;6.990;2023-04-02T04:14:33;7.87;;;3.77;;
68089;SDS011;54880;50.986;6.990;2023-04-02T04:19:44;6.55;;;3.25;;
68089;SDS011;54880;50.986;6.990;2023-04-02T04:22:25;6.95;;;3.10;;
68089;SDS011;54880;50.986;6.990;2023-04-02T04:25:24;6.78;;;3.28;;
68089;SDS011;54880;50.986;6.990;2023-04-02T04:28:02;6.73;;;3.17;;
68089;SDS011;54880;50.986;6.990;2023-04-02T04:30:45;6.90;;;3.20;;
68089;SDS011;54880;50.986;6.990;2023-04-02T04:33:22;7.40;;;3.00;;
68089;SDS011;54880;50.986;6.990;2023-04-02T04:35:59;6.80;;;3.00;;
68089;SDS011;54880;50.986;6.990;2023-04-02T04:38:32;6.60;;;2.90;;
68089;SDS011;54880;50.986;6.990;2023-04-02T04:41:00;8.07;;;3.50;;
68089;SDS011;54880;50.986;6.990;2023-04-02T04:46:02;6.15;;;3.13;;
68089;SDS011;54880;50.986;6.990;2023-04-02T04:48:38;6.90;;;3.10;;
68089;SDS011;54880;50.986;6.990;2023-04-02T04:51:16;6.65;;;3.10;;
68089;SDS011;54880;50.986;6.990;2023-04-02T04:53:46;6.77;;;3.00;;
68089;SDS011;54880;50.986;6.990;2023-04-02T04:56:12;7.75;;;3.55;;
68089;SDS011;54880;50.986;6.990;2023-04-02T04:58:42;6.60;;;3.00;;
68089;SDS011;54880;50.986;6.990;2023-04-02T05:01:11;6.47;;;2.85;;
68089;SDS011;54880;50.986;6.990;2023-04-02T05:03:40;6.85;;;3.60;;
68089;SDS011;54880;50.986;6.990;2023-04-02T05:06:08;6.33;;;2.90;;
68089;SDS011;54880;50.986;6.990;2023-04-02T05:08:39;7.38;;;3.58;;
68089;SDS011;54880;50.986;6.990;2023-04-02T05:11:10;7.10;;;3.65;;
68089;SDS011;54880;50.986;6.990;2023-04-02T05:13:48;7.85;;;3.55;;
68089;SDS011;54880;50.986;6.990;2023-04-02T05:16:17;7.40;;;3.92;;
68089;SDS011;54880;50.986;6.990;2023-04-02T05:21:21;8.57;;;3.53;;
68089;SDS011;54880;50.986;6.990;2023-04-02T05:23:53;7.97;;;3.85;;
68089;SDS011;54880;50.986;6.990;2023-04-02T05:26:22;6.55;;;3.15;;
68089;SDS011;54880;50.986;6.990;2023-04-02T05:31:19;7.77;;;3.20;;
68089;SDS011;54880;50.986;6.990;2023-04-02T05:33:46;6.57;;;3.28;;
68089;SDS011;54880;50.986;6.990;2023-04-02T05:36:21;7.75;;;3.80;;
68089;SDS011;54880;50.986;6.990;2023-04-02T05:38:50;7.87;;;3.77;;
68089;SDS011;54880;50.986;6.990;2023-04-02T05:41:26;7.60;;;4.20;;
68089;SDS011;54880;50.986;6.990;2023-04-02T05:44:17;8.85;;;3.95;;
68089;SDS011;54880;50.986;6.990;2023-04-02T05:46:57;7.70;;;3.85;;
68089;SDS011;54880;50.986;6.990;2023-04-02T05:49:30;8.68;;;4.25;;
68089;SDS011;54880;50.986;6.990;2023-04-02T05:51:59;7.37;;;3.43;;
68089;SDS011;54880;50.986;6.990;2023-04-02T05:54:30;8.15;;;4.03;;
68089;SDS011;54880;50.986;6.990;2023-04-02T05:56:59;8.70;;;4.28;;
68089;SDS011;54880;50.986;6.990;2023-04-02T05:59:28;8.48;;;3.47;;
68089;SDS011;54880;50.986;6.990;2023-04-02T06:01:58;7.90;;;3.90;;
68089;SDS011;54880;50.986;6.990;2023-04-02T06:04:52;10.00;;;3.93;;
68089;SDS011;54880;50.986;6.990;2023-04-02T06:07:26;8.30;;;4.20;;
68089;SDS011;54880;50.986;6.990;2023-04-02T06:10:00;8.40;;;3.97;;
68089;SDS011;54880;50.986;6.990;2023-04-02T06:15:11;7.38;;;3.60;;
68089;SDS011;54880;50.986;6.990;2023-04-02T06:17:43;9.67;;;3.40;;
68089;SDS011;54880;50.986;6.990;2023-04-02T06:20:11;9.68;;;3.95;;
68089;SDS011;54880;50.986;6.990;2023-04-02T06:22:37;10.13;;;4.72;;
68089;SDS011;54880;50.986;6.990;2023-04-02T06:25:10;9.57;;;4.65;;
68089;SDS011;54880;50.986;6.990;2023-04-02T06:27:40;8.63;;;4.07;;
68089;SDS011;54880;50.986;6.990;2023-04-02T06:30:13;9.57;;;4.90;;
68089;SDS011;54880;50.986;6.990;2023-04-02T06:32:41;10.38;;;4.53;;
68089;SDS011;54880;50.986;6.990;2023-04-02T06:35:12;9.00;;;4.47;;
68089;SDS011;54880;50.986;6.990;2023-04-02T06:37:40;9.35;;;4.50;;
68089;SDS011;54880;50.986;6.990;2023-04-02T06:42:55;8.90;;;4.63;;
68089;SDS011;54880;50.986;6.990;2023-04-02T06:45:32;9.85;;;4.78;;
68089;SDS011;54880;50.986;6.990;2023-04-02T06:48:12;9.57;;;4.85;;
68089;SDS011;54880;50.986;6.990;2023-04-02T06:50:53;9.13;;;4.97;;
68089;SDS011;54880;50.986;6.990;2023-04-02T06:53:20;8.98;;;4.35;;
68089;SDS011;54880;50.986;6.990;2023-04-02T06:58:33;9.77;;;4.82;;
68089;SDS011;54880;50.986;6.990;2023-04-02T07:00:59;9.75;;;4.78;;
68089;SDS011;54880;50.986;6.990;2023-04-02T07:03:32;12.50;;;5.07;;
68089;SDS011;54880;50.986;6.990;2023-04-02T07:06:05;10.57;;;4.82;;
68089;SDS011;54880;50.986;6.990;2023-04-02T07:08:32;9.93;;;5.10;;
68089;SDS011;54880;50.986;6.990;2023-04-02T07:10:58;10.85;;;5.10;;
68089;SDS011;54880;50.986;6.990;2023-04-02T07:13:24;8.90;;;4.33;;
68089;SDS011;54880;50.986;6.990;2023-04-02T07:15:50;9.75;;;4.38;;
68089;SDS011;54880;50.986;6.990;2023-04-02T07:18:21;10.73;;;4.65;;
68089;SDS011;54880;50.986;6.990;2023-04-02T07:20:47;11.13;;;4.47;;
68089;SDS011;54880;50.986;6.990;2023-04-02T07:23:13;10.32;;;5.28;;
68089;SDS011;54880;50.986;6.990;2023-04-02T07:25:38;8.87;;;4.27;;
68089;SDS011;54880;50.986;6.990;2023-04-02T07:28:04;11.18;;;5.07;;
68089;SDS011;54880;50.986;6.990;2023-04-02T07:30:30;8.80;;;4.57;;
68089;SDS011;54880;50.986;6.990;2023-04-02T07:32:55;14.53;;;5.63;;
68089;SDS011;54880;50.986;6.990;2023-04-02T07:35:21;12.13;;;4.78;;
68089;SDS011;54880;50.986;6.990;2023-04-02T07:37:46;11.07;;;4.68;;
68089;SDS011;54880;50.986;6.990;2023-04-02T07:40:18;9.97;;;4.57;;
68089;SDS011;54880;50.986;6.990;2023-04-02T07:42:45;9.77;;;4.28;;
68089;SDS011;54880;50.986;6.990;2023-04-02T07:45:10;12.23;;;4.90;;
68089;SDS011;54880;50.986;6.990;2023-04-02T07:47:35;9.20;;;4.30;;
68089;SDS011;54880;50.986;6.990;2023-04-02T07:50:01;10.03;;;4.63;;
68089;SDS011;54880;50.986;6.990;2023-04-02T07:52:26;9.70;;;4.80;;
68089;SDS011;54880;50.986;6.990;2023-04-02T07:54:51;10.40;;;4.80;;
68089;SDS011;54880;50.986;6.990;2023-04-02T07:57:16;10.43;;;4.67;;
68089;SDS011;54880;50.986;6.990;2023-04-02T07:59:42;8.80;;;4.47;;
68089;SDS011;54880;50.986;6.990;2023-04-02T08:02:15;11.37;;;4.87;;
68089;SDS011;54880;50.986;6.990;2023-04-02T08:04:42;11.68;;;4.85;;
68089;SDS011;54880;50.986;6.990;2023-04-02T08:07:07;10.63;;;4.70;;
68089;SDS011;54880;50.986;6.990;2023-04-02T08:09:32;10.83;;;4.40;;
68089;SDS011;54880;50.986;6.990;2023-04-02T08:11:57;10.90;;;5.07;;
68089;SDS011;54880;50.986;6.990;2023-04-02T08:14:23;10.23;;;5.03;;
68089;SDS011;54880;50.986;6.990;2023-04-02T08:16:49;11.73;;;4.70;;
68089;SDS011;54880;50.986;6.990;2023-04-02T08:19:15;11.75;;;5.35;;
68089;SDS011;54880;50.986;6.990;2023-04-02T08:21:40;13.33;;;5.33;;
68089;SDS011;54880;50.986;6.990;2023-04-02T08:24:06;12.50;;;5.10;;
68089;SDS011;54880;50.986;6.990;2023-04-02T08:26:31;10.87;;;5.40;;
68089;SDS011;54880;50.986;6.990;2023-04-02T08:28:57;14.83;;;5.80;;
68089;SDS011;54880;50.986;6.990;2023-04-02T08:31:22;11.97;;;5.17;;
68089;SDS011;54880;50.986;6.990;2023-04-02T08:33:47;11.30;;;5.80;;
68089;SDS011;54880;50.986;6.990;2023-04-02T08:36:16;10.83;;;5.80;;
68089;SDS011;54880;50.986;6.990;2023-04-02T08:38:41;11.33;;;5.57;;
68089;SDS011;54880;50.986;6.990;2023-04-02T08:41:07;10.90;;;5.22;;
68089;SDS011;54880;50.986;6.990;2023-04-02T08:48:52;12.10;;;5.30;;
68089;SDS011;54880;50.986;6.990;2023-04-02T08:51:32;18.60;;;5.70;;
68089;SDS011;54880;50.986;6.990;2023-04-02T08:54:40;14.32;;;5.60;;
68089;SDS011;54880;50.986;6.990;2023-04-02T08:59:44;11.40;;;5.27;;
68089;SDS011;54880;50.986;6.990;2023-04-02T09:02:23;9.98;;;4.70;;
68089;SDS011;54880;50.986;6.990;2023-04-02T09:04:51;12.88;;;5.15;;
68089;SDS011;54880;50.986;6.990;2023-04-02T09:07:17;11.27;;;5.10;;
68089;SDS011;54880;50.986;6.990;2023-04-02T09:09:42;11.27;;;5.17;;
68089;SDS011;54880;50.986;6.990;2023-04-02T09:12:26;11.82;;;4.43;;
68089;SDS011;54880;50.986;6.990;2023-04-02T09:14:55;10.85;;;4.40;;
68089;SDS011;54880;50.986;6.990;2023-04-02T09:17:23;11.40;;;4.47;;
68089;SDS011;54880;50.986;6.990;2023-04-02T09:19:54;11.63;;;4.60;;
68089;SDS011;54880;50.986;6.990;2023-04-02T09:22:23;9.00;;;4.25;;
68089;SDS011;54880;50.986;6.990;2023-04-02T09:24:56;11.23;;;4.55;;
68089;SDS011;54880;50.986;6.990;2023-04-02T09:27:22;13.43;;;5.22;;
68089;SDS011;54880;50.986;6.990;2023-04-02T09:29:50;10.98;;;4.32;;
68089;SDS011;54880;50.986;6.990;2023-04-02T09:32:20;10.93;;;3.93;;
68089;SDS011;54880;50.986;6.990;2023-04-02T09:34:46;10.32;;;4.65;;
68089;SDS011;54880;50.986;6.990;2023-04-02T09:39:37;10.83;;;4.67;;
68089;SDS011;54880;50.986;6.990;2023-04-02T09:42:06;11.20;;;4.43;;
68089;SDS011;54880;50.986;6.990;2023-04-02T09:44:32;10.27;;;4.43;;
68089;SDS011;54880;50.986;6.990;2023-04-02T09:47:01;9.10;;;4.73;;
68089;SDS011;54880;50.986;6.990;2023-04-02T09:49:34;10.73;;;3.50;;
68089;SDS011;54880;50.986;6.990;2023-04-02T09:54:34;10.43;;;4.70;;
68089;SDS011;54880;50.986;6.990;2023-04-02T09:57:09;12.07;;;4.95;;
68089;SDS011;54880;50.986;6.990;2023-04-02T09:59:40;12.03;;;5.13;;
68089;SDS011;54880;50.986;6.990;2023-04-02T10:02:21;10.97;;;4.63;;
68089;SDS011;54880;50.986;6.990;2023-04-02T10:04:47;11.05;;;5.10;;
68089;SDS011;54880;50.986;6.990;2023-04-02T10:07:31;11.32;;;5.03;;
68089;SDS011;54880;50.986;6.990;2023-04-02T10:09:59;12.25;;;5.40;;
68089;SDS011;54880;50.986;6.990;2023-04-02T10:12:25;11.80;;;4.90;;
68089;SDS011;54880;50.986;6.990;2023-04-02T10:14:50;10.40;;;4.90;;
68089;SDS011;54880;50.986;6.990;2023-04-02T10:17:50;10.45;;;4.90;;
68089;SDS011;54880;50.986;6.990;2023-04-02T10:20:18;11.13;;;5.22;;
68089;SDS011;54880;50.986;6.990;2023-04-02T10:22:45;13.37;;;5.60;;
68089;SDS011;54880;50.986;6.990;2023-04-02T10:25:14;10.60;;;4.87;;
68089;SDS011;54880;50.986;6.990;2023-04-02T10:32:45;11.55;;;4.95;;
68089;SDS011;54880;50.986;6.990;2023-04-02T10:35:21;15.07;;;5.65;;
68089;SDS011;54880;50.986;6.990;2023-04-02T10:37:50;11.13;;;4.80;;
68089;SDS011;54880;50.986;6.990;2023-04-02T10:40:54;9.77;;;4.25;;
68089;SDS011;54880;50.986;6.990;2023-04-02T10:51:05;10.67;;;4.73;;
68089;SDS011;54880;50.986;6.990;2023-04-02T10:55:57;10.33;;;4.50;;
68089;SDS011;54880;50.986;6.990;2023-04-02T11:00:48;9.77;;;4.53;;
68089;SDS011;54880;50.986;6.990;2023-04-02T11:03:31;9.65;;;4.80;;
68089;SDS011;54880;50.986;6.990;2023-04-02T11:05:58;9.57;;;4.60;;
68089;SDS011;54880;50.986;6.990;2023-04-02T11:08:46;9.32;;;4.50;;
68089;SDS011;54880;50.986;6.990;2023-04-02T11:11:14;9.80;;;4.50;;
68089;SDS011;54880;50.986;6.990;2023-04-02T11:16:06;8.93;;;4.23;;
68089;SDS011;54880;50.986;6.990;2023-04-02T11:18:32;8.95;;;3.88;;
68089;SDS011;54880;50.986;6.990;2023-04-02T11:23:34;8.35;;;4.13;;
68089;SDS011;54880;50.986;6.990;2023-04-02T11:28:44;8.82;;;4.47;;
68089;SDS011;54880;50.986;6.990;2023-04-02T11:31:18;9.47;;;4.60;;
68089;SDS011;54880;50.986;6.990;2023-04-02T11:33:43;8.68;;;4.40;;
68089;SDS011;54880;50.986;6.990;2023-04-02T11:38:53;10.57;;;4.63;;
68089;SDS011;54880;50.986;6.990;2023-04-02T11:44:03;9.55;;;4.93;;
68089;SDS011;54880;50.986;6.990;2023-04-02T11:46:33;9.98;;;4.85;;
68089;SDS011;54880;50.986;6.990;2023-04-02T11:52:26;12.73;;;4.97;;
68089;SDS011;54880;50.986;6.990;2023-04-02T11:55:35;9.27;;;4.63;;
68089;SDS011;54880;50.986;6.990;2023-04-02T11:57:44;9.80;;;4.70;;
68089;SDS011;54880;50.986;6.990;2023-04-02T12:02:47;8.32;;;4.22;;
68089;SDS011;54880;50.986;6.990;2023-04-02T12:05:30;10.02;;;4.10;;
68089;SDS011;54880;50.986;6.990;2023-04-02T12:08:19;9.67;;;4.30;;
68089;SDS011;54880;50.986;6.990;2023-04-02T12:10:54;10.18;;;4.53;;
68089;SDS011;54880;50.986;6.990;2023-04-02T12:13:46;9.77;;;4.82;;
68089;SDS011;54880;50.986;6.990;2023-04-02T12:16:06;9.00;;;3.90;;
68089;SDS011;54880;50.986;6.990;2023-04-02T12:18:31;10.95;;;4.65;;
68089;SDS011;54880;50.986;6.990;2023-04-02T12:20:57;10.97;;;4.53;;
68089;SDS011;54880;50.986;6.990;2023-04-02T12:25:55;10.25;;;4.70;;
68089;SDS011;54880;50.986;6.990;2023-04-02T12:28:21;11.57;;;4.83;;
68089;SDS011;54880;50.986;6.990;2023-04-02T12:30:47;10.20;;;4.30;;
68089;SDS011;54880;50.986;6.990;2023-04-02T12:33:13;10.32;;;4.45;;
68089;SDS011;54880;50.986;6.990;2023-04-02T12:35:39;10.17;;;4.33;;
68089;SDS011;54880;50.986;6.990;2023-04-02T12:38:15;10.15;;;4.60;;
68089;SDS011;54880;50.986;6.990;2023-04-02T12:40:49;9.18;;;4.40;;
68089;SDS011;54880;50.986;6.990;2023-04-02T12:43:24;10.13;;;4.70;;
68089;SDS011;54880;50.986;6.990;2023-04-02T12:45:51;10.50;;;4.47;;
68089;SDS011;54880;50.986;6.990;2023-04-02T12:48:16;11.77;;;4.68;;
68089;SDS011;54880;50.986;6.990;2023-04-02T12:50:42;8.15;;;4.68;;
68089;SDS011;54880;50.986;6.990;2023-04-02T12:53:24;9.82;;;3.92;;
68089;SDS011;54880;50.986;6.990;2023-04-02T12:55:50;8.40;;;4.47;;
68089;SDS011;54880;50.986;6.990;2023-04-02T12:58:34;11.55;;;4.25;;
68089;SDS011;54880;50.986;6.990;2023-04-02T13:01:10;7.22;;;3.70;;
68089;SDS011;54880;50.986;6.990;2023-04-02T13:03:35;9.30;;;4.40;;
68089;SDS011;54880;50.986;6.990;2023-04-02T13:06:01;8.73;;;4.40;;
68089;SDS011;54880;50.986;6.990;2023-04-02T13:08:41;9.00;;;4.03;;
68089;SDS011;54880;50.986;6.990;2023-04-02T13:11:07;9.02;;;4.22;;
68089;SDS011;54880;50.986;6.990;2023-04-02T13:16:22;8.03;;;3.97;;
68089;SDS011;54880;50.986;6.990;2023-04-02T13:18:49;9.13;;;4.20;;
68089;SDS011;54880;50.986;6.990;2023-04-02T13:23:45;7.77;;;3.80;;
68089;SDS011;54880;50.986;6.990;2023-04-02T13:26:24;8.35;;;3.70;;
68089;SDS011;54880;50.986;6.990;2023-04-02T13:31:21;9.02;;;3.92;;
68089;SDS011;54880;50.986;6.990;2023-04-02T13:33:46;8.27;;;4.07;;
68089;SDS011;54880;50.986;6.990;2023-04-02T13:36:12;11.50;;;4.40;;
68089;SDS011;54880;50.986;6.990;2023-04-02T13:38:38;7.65;;;3.63;;
68089;SDS011;54880;50.986;6.990;2023-04-02T13:41:03;8.50;;;3.93;;
68089;SDS011;54880;50.986;6.990;2023-04-02T13:43:29;8.00;;;3.40;;
68089;SDS011;54880;50.986;6.990;2023-04-02T13:45:54;9.23;;;3.47;;
68089;SDS011;54880;50.986;6.990;2023-04-02T13:48:20;8.43;;;3.83;;
68089;SDS011;54880;50.986;6.990;2023-04-02T13:50:50;8.75;;;3.80;;
68089;SDS011;54880;50.986;6.990;2023-04-02T13:53:20;8.10;;;3.10;;
68089;SDS011;54880;50.986;6.990;2023-04-02T13:55:46;7.75;;;3.28;;
68089;SDS011;54880;50.986;6.990;2023-04-02T13:58:11;8.77;;;3.60;;
68089;SDS011;54880;50.986;6.990;2023-04-02T14:00:37;7.67;;;3.30;;
68089;SDS011;54880;50.986;6.990;2023-04-02T14:03:10;8.00;;;3.33;;
68089;SDS011;54880;50.986;6.990;2023-04-02T14:05:38;9.27;;;3.70;;
68089;SDS011;54880;50.986;6.990;2023-04-02T14:08:21;7.03;;;3.15;;
68089;SDS011;54880;50.986;6.990;2023-04-02T14:10:51;7.38;;;3.35;;
68089;SDS011;54880;50.986;6.990;2023-04-02T14:13:35;8.23;;;3.03;;
68089;SDS011;54880;50.986;6.990;2023-04-02T14:16:23;7.17;;;2.80;;
68089;SDS011;54880;50.986;6.990;2023-04-02T14:29:21;8.33;;;2.67;;
68089;SDS011;54880;50.986;6.990;2023-04-02T14:34:21;6.77;;;2.97;;
68089;SDS011;54880;50.986;6.990;2023-04-02T14:39:30;7.90;;;3.10;;
68089;SDS011;54880;50.986;6.990;2023-04-02T14:42:02;9.80;;;3.17;;
68089;SDS011;54880;50.986;6.990;2023-04-02T14:44:31;7.05;;;2.63;;
68089;SDS011;54880;50.986;6.990;2023-04-02T14:47:10;5.50;;;2.38;;
68089;SDS011;54880;50.986;6.990;2023-04-02T14:49:38;8.23;;;3.53;;
68089;SDS011;54880;50.986;6.990;2023-04-02T14:52:11;6.80;;;2.90;;
68089;SDS011;54880;50.986;6.990;2023-04-02T15:05:02;7.55;;;3.20;;
68089;SDS011;54880;50.986;6.990;2023-04-02T15:07:32;8.30;;;3.47;;
68089;SDS011;54880;50.986;6.990;2023-04-02T15:10:46;10.13;;;3.70;;
68089;SDS011;54880;50.986;6.990;2023-04-02T15:12:45;8.35;;;3.42;;
68089;SDS011;54880;50.986;6.990;2023-04-02T15:15:21;6.97;;;3.25;;
68089;SDS011;54880;50.986;6.990;2023-04-02T15:17:48;8.10;;;3.58;;
68089;SDS011;54880;50.986;6.990;2023-04-02T15:20:14;8.77;;;3.43;;
68089;SDS011;54880;50.986;6.990;2023-04-02T15:23:05;7.68;;;3.28;;
68089;SDS011;54880;50.986;6.990;2023-04-02T15:25:32;9.27;;;3.63;;
68089;SDS011;54880;50.986;6.990;2023-04-02T15:28:11;6.45;;;3.55;;
68089;SDS011;54880;50.986;6.990;2023-04-02T15:30:42;7.53;;;3.33;;
68089;SDS011;54880;50.986;6.990;2023-04-02T15:33:22;6.35;;;3.17;;
68089;SDS011;54880;50.986;6.990;2023-04-02T15:35:51;7.80;;;3.60;;
68089;SDS011;54880;50.986;6.990;2023-04-02T15:40:52;9.38;;;3.70;;
68089;SDS011;54880;50.986;6.990;2023-04-02T15:46:06;7.28;;;3.58;;
68089;SDS011;54880;50.986;6.990;2023-04-02T15:51:14;9.57;;;4.03;;
68089;SDS011;54880;50.986;6.990;2023-04-02T15:53:47;6.75;;;3.67;;
68089;SDS011;54880;50.986;6.990;2023-04-02T15:56:37;9.90;;;3.30;;
68089;SDS011;54880;50.986;6.990;2023-04-02T16:04:49;7.37;;;3.40;;
68089;SDS011;54880;50.986;6.990;2023-04-02T16:12:44;6.97;;;3.08;;
68089;SDS011;54880;50.986;6.990;2023-04-02T16:15:13;7.28;;;3.53;;
68089;SDS011;54880;50.986;6.990;2023-04-02T16:17:44;8.00;;;3.13;;
68089;SDS011;54880;50.986;6.990;2023-04-02T16:20:23;6.43;;;3.03;;
68089;SDS011;54880;50.986;6.990;2023-04-02T16:22:53;7.45;;;2.88;;
68089;SDS011;54880;50.986;6.990;2023-04-02T16:25:21;6.60;;;3.35;;
68089;SDS011;54880;50.986;6.990;2023-04-02T16:33:21;7.80;;;3.10;;
68089;SDS011;54880;50.986;6.990;2023-04-02T16:36:01;6.90;;;2.73;;
68089;SDS011;54880;50.986;6.990;2023-04-02T16:38:39;7.07;;;3.00;;
68089;SDS011;54880;50.986;6.990;2023-04-02T16:43:36;5.97;;;2.53;;
68089;SDS011;54880;50.986;6.990;2023-04-02T16:48:58;7.60;;;2.80;;
68089;SDS011;54880;50.986;6.990;2023-04-02T16:51:32;6.93;;;2.70;;
68089;SDS011;54880;50.986;6.990;2023-04-02T16:54:10;8.48;;;2.80;;
68089;SDS011;54880;50.986;6.990;2023-04-02T16:56:44;10.27;;;3.03;;
68089;SDS011;54880;50.986;6.990;2023-04-02T17:02:01;6.47;;;2.88;;
68089;SDS011;54880;50.986;6.990;2023-04-02T17:04:40;8.00;;;2.50;;
68089;SDS011;54880;50.986;6.990;2023-04-02T17:09:52;7.07;;;3.28;;
68089;SDS011;54880;50.986;6.990;2023-04-02T17:14:49;6.63;;;2.63;;
68089;SDS011;54880;50.986;6.990;2023-04-02T17:17:15;6.47;;;2.43;;
68089;SDS011;54880;50.986;6.990;2023-04-02T17:19:41;6.00;;;2.13;;
68089;SDS011;54880;50.986;6.990;2023-04-02T17:22:14;6.05;;;2.10;;
68089;SDS011;54880;50.986;6.990;2023-04-02T17:25:02;5.03;;;2.00;;
68089;SDS011;54880;50.986;6.990;2023-04-02T17:27:36;6.03;;;1.73;;
68089;SDS011;54880;50.986;6.990;2023-04-02T17:32:36;6.45;;;2.00;;
68089;SDS011;54880;50.986;6.990;2023-04-02T17:35:15;6.90;;;1.80;;
68089;SDS011;54880;50.986;6.990;2023-04-02T17:37:42;5.18;;;1.95;;
68089;SDS011;54880;50.986;6.990;2023-04-02T17:48:02;7.47;;;1.92;;
68089;SDS011;54880;50.986;6.990;2023-04-02T17:55:41;7.67;;;2.30;;
68089;SDS011;54880;50.986;6.990;2023-04-02T18:00:40;5.82;;;1.80;;
68089;SDS011;54880;50.986;6.990;2023-04-02T18:03:16;6.27;;;1.93;;
68089;SDS011;54880;50.986;6.990;2023-04-02T18:05:50;6.68;;;2.00;;
68089;SDS011;54880;50.986;6.990;2023-04-02T18:10:57;6.13;;;2.40;;
68089;SDS011;54880;50.986;6.990;2023-04-02T18:13:34;6.90;;;2.50;;
68089;SDS011;54880;50.986;6.990;2023-04-02T18:21:31;7.72;;;2.60;;
68089;SDS011;54880;50.986;6.990;2023-04-02T18:31:55;7.18;;;2.53;;
68089;SDS011;54880;50.986;6.990;2023-04-02T18:39:29;6.72;;;2.70;;
68089;SDS011;54880;50.986;6.990;2023-04-02T18:42:00;8.23;;;2.70;;
68089;SDS011;54880;50.986;6.990;2023-04-02T18:47:00;7.35;;;3.05;;
68089;SDS011;54880;50.986;6.990;2023-04-02T18:51:56;7.57;;;2.87;;
68089;SDS011;54880;50.986;6.990;2023-04-02T18:54:37;7.63;;;3.08;;